Joy — V2EI9 — position and weather

sailwx.info

Track history (hours):
 
Tides and Currents Weather Stations Pressure Air Temp Water Temp Dewpoint Dewpoint Depression Visibility Wind Speed Wind Dir Waves Ship Positions

Joy

Last reported at 2016-May-30 12:32 UTC. Time now 2016-May-30 12:43 UTC.
Position N 54°26' E 018°39'.

Length 105 m; draft 4 m.

Type: Cargo ship. MMSI: 305444000.

Date/timePositionNaut miles runAvg speedWind from/ knotsBaromVisibWave heightAir tempDewpointWater temp
2016-May-30 12:32N 54°26' E 018°39'0 0.0
2016-May-30 11:29N 54°26' E 018°39'0 0.0
2016-May-30 10:32N 54°26' E 018°39'0 0.0
2016-May-30 09:32N 54°26' E 018°39'0 0.0
2016-May-30 08:32N 54°26' E 018°39'0 0.0
2016-May-30 07:32N 54°26' E 018°39'0 0.0
2016-May-30 06:32N 54°26' E 018°39'0 0.0
2016-May-30 05:32N 54°26' E 018°39'0 0.0
2016-May-30 04:32N 54°26' E 018°39'0 0.0
2016-May-30 03:32N 54°26' E 018°39'0 0.0
2016-May-30 02:32N 54°26' E 018°39'0 0.0
2016-May-30 01:32N 54°26' E 018°39'0 0.0
2016-May-30 00:32N 54°26' E 018°39'0 0.0
2016-May-29 23:32N 54°26' E 018°39'0 0.0
2016-May-29 22:32N 54°26' E 018°39'0 0.0
2016-May-29 21:32N 54°26' E 018°39'0 0.0
2016-May-29 20:32N 54°26' E 018°39'0 0.0
2016-May-29 19:32N 54°26' E 018°39'0 0.0
2016-May-29 18:32N 54°26' E 018°39'0 0.0
2016-May-29 17:32N 54°26' E 018°39'0 0.0
2016-May-29 16:32N 54°26' E 018°39'0 0.0
2016-May-29 15:32N 54°26' E 018°39'0 0.0
2016-May-29 14:32N 54°26' E 018°39'0 0.2
2016-May-29 13:34N 54°26' E 018°39'1111.1
2016-May-29 12:34N 54°35' E 018°52'1110.7
2016-May-29 11:34N 54°45' E 018°58'1010.2
2016-May-29 10:34N 54°51' E 018°45'1010.2
2016-May-29 09:34N 54°55' E 018°29'1110.8
2016-May-29 08:34N 54°54' E 018°10'1110.8
2016-May-29 07:32N 54°54' E 017°51'1010.5
2016-May-29 06:34N 54°53' E 017°33'1110.5
2016-May-29 05:29N 54°52' E 017°14'2110.9
2016-May-29 03:31N 54°47' E 016°37'3210.9
2016-May-29 00:33N 54°51' E 015°41'1010.5
2016-May-28 23:34N 54°52' E 015°23'1110.6
2016-May-28 22:33N 54°53' E 015°05'1110.8
2016-May-28 21:33N 54°55' E 014°46'1110.6
2016-May-28 20:34N 54°56' E 014°28'1110.9
2016-May-28 19:34N 54°58' E 014°09'1110.7
2016-May-28 18:33N 55°01' E 013°51'1110.6
2016-May-28 17:33N 55°05' E 013°34'1010.5
2016-May-28 16:33N 55°09' E 013°18'1110.6
2016-May-28 15:34N 55°13' E 013°00'1110.7
2016-May-28 14:34N 55°17' E 012°43'9 9.2
2016-May-28 13:34N 55°26' E 012°40'1010.4
2016-May-28 12:34N 55°36' E 012°42'1010.1
2016-May-28 11:34N 55°46' E 012°41'1010.2
2016-May-28 10:34N 55°56' E 012°38'9 8.7
2016-May-28 09:34N 56°05' E 012°35'9 9.2
2016-May-28 08:34N 56°10' E 012°22'1110.7
2016-May-28 07:34N 56°17' E 012°07'1010.3
2016-May-28 06:33N 56°26' E 011°60'1010.6
2016-May-28 05:34N 56°36' E 011°55'1010.5
2016-May-28 04:34N 56°47' E 011°51'1010.3
2016-May-28 03:33N 56°56' E 011°44'1010.1
2016-May-28 02:33N 57°06' E 011°38'1010.3
2016-May-28 01:33N 57°15' E 011°32'1110.8
2016-May-28 00:33N 57°26' E 011°25'1010.3
2016-May-27 23:33N 57°33' E 011°13'1010.5
2016-May-27 22:33N 57°41' E 010°58'1010.4
2016-May-27 21:34N 57°47' E 010°43'155 9.7
2016-May-27 05:33N 56°00' E 007°19'1111.3
2016-May-27 04:33N 55°49' E 007°19'1111.4
2016-May-27 03:33N 55°38' E 007°20'1111.1
2016-May-27 02:33N 55°27' E 007°22'1110.9
2016-May-27 01:33N 55°16' E 007°24'1110.5
2016-May-27 00:33N 55°05' E 007°25'1110.6
2016-May-26 23:33N 54°55' E 007°26'1010.4
2016-May-26 22:33N 54°44' E 007°27'1110.7
2016-May-26 21:33N 54°34' E 007°28'1111.0
2016-May-26 20:33N 54°23' E 007°29'1110.9
2016-May-26 19:33N 54°12' E 007°30'1111.1
2016-May-26 18:33N 54°02' E 007°38'1110.6
2016-May-26 17:33N 53°53' E 007°48'1212.3
2016-May-26 16:33N 53°49' E 008°08'1312.5
2016-May-26 15:33N 53°40' E 008°23'1010.0
2016-May-26 14:33N 53°32' E 008°34'8 8.2
2016-May-26 13:33N 53°25' E 008°30'4 4.5
2016-May-26 12:33N 53°20' E 008°30'0 0.0
2016-May-26 11:33N 53°20' E 008°30'0 0.0
2016-May-26 10:33N 53°20' E 008°30'0 0.0
2016-May-26 09:33N 53°20' E 008°30'0 0.0
2016-May-26 08:33N 53°20' E 008°30'0 0.0
2016-May-26 07:33N 53°20' E 008°30'0 0.0
2016-May-26 06:33N 53°20' E 008°30'0 0.0
2016-May-26 05:33N 53°20' E 008°30'0 0.0
2016-May-26 04:33N 53°20' E 008°30'0 0.0
2016-May-26 03:33N 53°20' E 008°30'0 0.0
2016-May-26 02:33N 53°20' E 008°30'0 0.0
2016-May-26 01:33N 53°20' E 008°30'0 0.0
2016-May-26 00:33N 53°20' E 008°30'0 0.0
2016-May-25 23:33N 53°20' E 008°30'0 0.0
2016-May-25 22:33N 53°20' E 008°30'0 0.0
2016-May-25 21:33N 53°20' E 008°30'0 0.0
2016-May-25 20:33N 53°20' E 008°30'0 0.0
2016-May-25 19:33N 53°20' E 008°30'0 0.0
2016-May-25 18:30N 53°20' E 008°30'0 0.0
2016-May-25 17:29N 53°20' E 008°30'0 0.0
2016-May-25 16:11N 53°20' E 008°30'0 0.0
2016-May-25 15:26N 53°20' E 008°30'0 0.0
2016-May-25 14:23N 53°20' E 008°30'0 0.0
2016-May-25 13:33N 53°20' E 008°30'8 8.0
2016-May-25 12:33N 53°28' E 008°30'9 8.8
2016-May-25 11:33N 53°37' E 008°29'1413.6
2016-May-25 10:33N 53°46' E 008°11'1412.6
2016-May-25 09:28N 53°52' E 007°50'1010.9
2016-May-25 08:33N 53°54' E 007°34'1111.0
2016-May-25 07:33N 53°53' E 007°15'1010.3
2016-May-25 06:33N 53°51' E 006°58'10 9.7
2016-May-25 05:33N 53°49' E 006°42'9 9.5
2016-May-25 04:34N 53°47' E 006°27'9 9.4
2016-May-25 03:33N 53°44' E 006°11'9 9.3
2016-May-25 02:34N 53°40' E 005°57'9 9.3
2016-May-25 01:33N 53°37' E 005°42'9 9.4
2016-May-25 00:33N 53°35' E 005°27'9 9.4
2016-May-24 23:33N 53°32' E 005°12'9 9.3
2016-May-24 22:33N 53°28' E 004°57'26 8.6
2016-May-24 19:30N 53°08' E 004°30'9 9.4
2016-May-24 18:33N 52°60' E 004°22'20 9.8
2016-May-24 16:28N 52°43' E 004°03'9 9.6
2016-May-24 15:33N 52°37' E 003°53'9 9.1
2016-May-24 14:33N 52°30' E 003°43'9 8.6
2016-May-24 13:28N 52°22' E 003°34'8 8.2
2016-May-24 12:32N 52°15' E 003°30'36 7.3
2016-May-24 07:33N 51°40' E 003°20'1110.8
2016-May-24 06:33N 51°30' E 003°28'9 9.2
2016-May-24 05:33N 51°27' E 003°42'1 0.5
2016-May-24 04:32N 51°27' E 003°43'0 0.0
2016-May-24 03:32N 51°27' E 003°43'0 0.0
2016-May-24 02:32N 51°27' E 003°43'0 0.0
2016-May-24 01:32N 51°27' E 003°43'0 0.0
2016-May-24 00:32N 51°27' E 003°43'0 0.0
2016-May-23 23:32N 51°27' E 003°43'0 0.0
2016-May-23 22:32N 51°27' E 003°43'0 0.0
2016-May-23 21:32N 51°27' E 003°43'0 0.0
2016-May-23 20:32N 51°27' E 003°43'0 0.0
2016-May-23 19:32N 51°27' E 003°43'0 0.0
2016-May-23 18:32N 51°27' E 003°43'0 0.0
2016-May-23 17:32N 51°27' E 003°43'0 0.0
2016-May-23 16:31N 51°27' E 003°43'0 0.0
2016-May-23 15:32N 51°27' E 003°43'0 0.0
2016-May-23 14:31N 51°27' E 003°43'0 0.0
2016-May-23 13:28N 51°27' E 003°43'0 0.0
2016-May-23 12:31N 51°27' E 003°43'0 0.0
2016-May-23 11:31N 51°27' E 003°43'0 0.0
2016-May-23 10:31N 51°27' E 003°43'0 0.0
2016-May-23 09:31N 51°27' E 003°43'0 0.0
2016-May-23 08:31N 51°27' E 003°43'0 0.0
2016-May-23 07:31N 51°27' E 003°43'0 0.0
2016-May-23 06:31N 51°27' E 003°43'0 0.0
2016-May-23 05:31N 51°27' E 003°43'0 0.0
2016-May-23 04:31N 51°27' E 003°43'0 0.0
2016-May-23 03:31N 51°27' E 003°43'0 0.0
2016-May-23 02:31N 51°27' E 003°43'0 0.0
2016-May-23 01:31N 51°27' E 003°43'0 0.0
2016-May-23 00:31N 51°27' E 003°43'0 0.0
2016-May-22 23:31N 51°27' E 003°43'0 0.0
2016-May-22 22:31N 51°27' E 003°43'0 0.0
2016-May-22 21:31N 51°27' E 003°43'0 0.0
2016-May-22 20:31N 51°27' E 003°43'0 0.0
2016-May-22 19:31N 51°27' E 003°43'0 0.0
2016-May-22 18:31N 51°27' E 003°43'0 0.0
2016-May-22 17:31N 51°27' E 003°43'0 0.0
2016-May-22 16:28N 51°27' E 003°43'0 0.0
2016-May-22 15:31N 51°27' E 003°43'0 0.0
2016-May-22 14:31N 51°27' E 003°43'0 0.0
2016-May-22 13:31N 51°27' E 003°43'0 0.0
2016-May-22 12:31N 51°27' E 003°43'0 0.0
2016-May-22 11:31N 51°27' E 003°43'0 0.0
2016-May-22 10:31N 51°27' E 003°43'0 0.0
2016-May-22 09:31N 51°27' E 003°43'0 0.0
2016-May-22 08:31N 51°27' E 003°43'0 0.0
2016-May-22 07:31N 51°27' E 003°43'0 0.0
2016-May-22 06:31N 51°27' E 003°43'0 0.0
2016-May-22 05:31N 51°27' E 003°43'0 0.0
2016-May-22 04:31N 51°27' E 003°43'0 0.0
2016-May-22 03:31N 51°27' E 003°43'0 0.0
2016-May-22 02:31N 51°27' E 003°43'0 0.0
2016-May-22 01:31N 51°27' E 003°43'0 0.0
2016-May-22 00:34N 51°27' E 003°43'0 0.0
2016-May-21 23:34N 51°27' E 003°43'0 0.0
2016-May-21 22:30N 51°27' E 003°43'0 0.0
2016-May-21 21:33N 51°27' E 003°43'0 0.0
2016-May-21 20:30N 51°27' E 003°43'0 0.0
2016-May-21 19:33N 51°27' E 003°43'2 2.0
2016-May-21 18:34N 51°27' E 003°40'8 7.9
2016-May-21 17:34N 51°25' E 003°27'8 8.1
2016-May-21 16:33N 51°24' E 003°14'9 9.5
2016-May-21 15:34N 51°23' E 002°59'1110.8
2016-May-21 14:34N 51°22' E 002°42'9 8.8
2016-May-21 13:31N 51°21' E 002°28'1212.1
2016-May-21 12:33N 51°16' E 002°11'1312.7
2016-May-21 11:34N 51°10' E 001°53'1313.1
2016-May-21 10:34N 51°01' E 001°38'1212.1
2016-May-21 09:32N 50°51' E 001°26'53 9.7
2016-May-21 04:04N 50°21' E 000°17'5 9.1
2016-May-21 03:33N 50°20' E 000°10'9 9.0
2016-May-21 02:34N 50°18' W 000°04'9 8.9
2016-May-21 01:33N 50°16' W 000°18'11411.4
2016-May-20 15:33N 49°43' W 003°08'  
Track history (hours):
 
Tides and Currents Weather Stations Pressure Air Temp Water Temp Dewpoint Dewpoint Depression Visibility Wind Speed Wind Dir Waves Ship Positions

Joy

Last reported at 2016-May-30 12:32 UTC. Time now 2016-May-30 12:43 UTC.
Position N 54°26' E 018°39'.

Length 105 m; draft 4 m.

Type: Cargo ship. MMSI: 305444000.

Date/timePositionNaut miles runAvg speedWind from/ knotsBaromVisibWave heightAir tempDewpointWater temp
2016-May-30 12:32N 54°26' E 018°39'0 0.0
2016-May-30 11:29N 54°26' E 018°39'0 0.0
2016-May-30 10:32N 54°26' E 018°39'0 0.0
2016-May-30 09:32N 54°26' E 018°39'0 0.0
2016-May-30 08:32N 54°26' E 018°39'0 0.0
2016-May-30 07:32N 54°26' E 018°39'0 0.0
2016-May-30 06:32N 54°26' E 018°39'0 0.0
2016-May-30 05:32N 54°26' E 018°39'0 0.0
2016-May-30 04:32N 54°26' E 018°39'0 0.0
2016-May-30 03:32N 54°26' E 018°39'0 0.0
2016-May-30 02:32N 54°26' E 018°39'0 0.0
2016-May-30 01:32N 54°26' E 018°39'0 0.0
2016-May-30 00:32N 54°26' E 018°39'0 0.0
2016-May-29 23:32N 54°26' E 018°39'0 0.0
2016-May-29 22:32N 54°26' E 018°39'0 0.0
2016-May-29 21:32N 54°26' E 018°39'0 0.0
2016-May-29 20:32N 54°26' E 018°39'0 0.0
2016-May-29 19:32N 54°26' E 018°39'0 0.0
2016-May-29 18:32N 54°26' E 018°39'0 0.0
2016-May-29 17:32N 54°26' E 018°39'0 0.0
2016-May-29 16:32N 54°26' E 018°39'0 0.0
2016-May-29 15:32N 54°26' E 018°39'0 0.0
2016-May-29 14:32N 54°26' E 018°39'0 0.2
2016-May-29 13:34N 54°26' E 018°39'1111.1
2016-May-29 12:34N 54°35' E 018°52'1110.7
2016-May-29 11:34N 54°45' E 018°58'1010.2
2016-May-29 10:34N 54°51' E 018°45'1010.2
2016-May-29 09:34N 54°55' E 018°29'1110.8
2016-May-29 08:34N 54°54' E 018°10'1110.8
2016-May-29 07:32N 54°54' E 017°51'1010.5
2016-May-29 06:34N 54°53' E 017°33'1110.5
2016-May-29 05:29N 54°52' E 017°14'2110.9
2016-May-29 03:31N 54°47' E 016°37'3210.9
2016-May-29 00:33N 54°51' E 015°41'1010.5
2016-May-28 23:34N 54°52' E 015°23'1110.6
2016-May-28 22:33N 54°53' E 015°05'1110.8
2016-May-28 21:33N 54°55' E 014°46'1110.6
2016-May-28 20:34N 54°56' E 014°28'1110.9
2016-May-28 19:34N 54°58' E 014°09'1110.7
2016-May-28 18:33N 55°01' E 013°51'1110.6
2016-May-28 17:33N 55°05' E 013°34'1010.5
2016-May-28 16:33N 55°09' E 013°18'1110.6
2016-May-28 15:34N 55°13' E 013°00'1110.7
2016-May-28 14:34N 55°17' E 012°43'9 9.2
2016-May-28 13:34N 55°26' E 012°40'1010.4
2016-May-28 12:34N 55°36' E 012°42'1010.1
2016-May-28 11:34N 55°46' E 012°41'1010.2
2016-May-28 10:34N 55°56' E 012°38'9 8.7
2016-May-28 09:34N 56°05' E 012°35'9 9.2
2016-May-28 08:34N 56°10' E 012°22'1110.7
2016-May-28 07:34N 56°17' E 012°07'1010.3
2016-May-28 06:33N 56°26' E 011°60'1010.6
2016-May-28 05:34N 56°36' E 011°55'1010.5
2016-May-28 04:34N 56°47' E 011°51'1010.3
2016-May-28 03:33N 56°56' E 011°44'1010.1
2016-May-28 02:33N 57°06' E 011°38'1010.3
2016-May-28 01:33N 57°15' E 011°32'1110.8
2016-May-28 00:33N 57°26' E 011°25'1010.3
2016-May-27 23:33N 57°33' E 011°13'1010.5
2016-May-27 22:33N 57°41' E 010°58'1010.4
2016-May-27 21:34N 57°47' E 010°43'155 9.7
2016-May-27 05:33N 56°00' E 007°19'1111.3
2016-May-27 04:33N 55°49' E 007°19'1111.4
2016-May-27 03:33N 55°38' E 007°20'1111.1
2016-May-27 02:33N 55°27' E 007°22'1110.9
2016-May-27 01:33N 55°16' E 007°24'1110.5
2016-May-27 00:33N 55°05' E 007°25'1110.6
2016-May-26 23:33N 54°55' E 007°26'1010.4
2016-May-26 22:33N 54°44' E 007°27'1110.7
2016-May-26 21:33N 54°34' E 007°28'1111.0
2016-May-26 20:33N 54°23' E 007°29'1110.9
2016-May-26 19:33N 54°12' E 007°30'1111.1
2016-May-26 18:33N 54°02' E 007°38'1110.6
2016-May-26 17:33N 53°53' E 007°48'1212.3
2016-May-26 16:33N 53°49' E 008°08'1312.5
2016-May-26 15:33N 53°40' E 008°23'1010.0
2016-May-26 14:33N 53°32' E 008°34'8 8.2
2016-May-26 13:33N 53°25' E 008°30'4 4.5
2016-May-26 12:33N 53°20' E 008°30'0 0.0
2016-May-26 11:33N 53°20' E 008°30'0 0.0
2016-May-26 10:33N 53°20' E 008°30'0 0.0
2016-May-26 09:33N 53°20' E 008°30'0 0.0
2016-May-26 08:33N 53°20' E 008°30'0 0.0
2016-May-26 07:33N 53°20' E 008°30'0 0.0
2016-May-26 06:33N 53°20' E 008°30'0 0.0
2016-May-26 05:33N 53°20' E 008°30'0 0.0
2016-May-26 04:33N 53°20' E 008°30'0 0.0
2016-May-26 03:33N 53°20' E 008°30'0 0.0
2016-May-26 02:33N 53°20' E 008°30'0 0.0
2016-May-26 01:33N 53°20' E 008°30'0 0.0
2016-May-26 00:33N 53°20' E 008°30'0 0.0
2016-May-25 23:33N 53°20' E 008°30'0 0.0
2016-May-25 22:33N 53°20' E 008°30'0 0.0
2016-May-25 21:33N 53°20' E 008°30'0 0.0
2016-May-25 20:33N 53°20' E 008°30'0 0.0
2016-May-25 19:33N 53°20' E 008°30'0 0.0
2016-May-25 18:30N 53°20' E 008°30'0 0.0
2016-May-25 17:29N 53°20' E 008°30'0 0.0
2016-May-25 16:11N 53°20' E 008°30'0 0.0
2016-May-25 15:26N 53°20' E 008°30'0 0.0
2016-May-25 14:23N 53°20' E 008°30'0 0.0
2016-May-25 13:33N 53°20' E 008°30'8 8.0
2016-May-25 12:33N 53°28' E 008°30'9 8.8
2016-May-25 11:33N 53°37' E 008°29'1413.6
2016-May-25 10:33N 53°46' E 008°11'1412.6
2016-May-25 09:28N 53°52' E 007°50'1010.9
2016-May-25 08:33N 53°54' E 007°34'1111.0
2016-May-25 07:33N 53°53' E 007°15'1010.3
2016-May-25 06:33N 53°51' E 006°58'10 9.7
2016-May-25 05:33N 53°49' E 006°42'9 9.5
2016-May-25 04:34N 53°47' E 006°27'9 9.4
2016-May-25 03:33N 53°44' E 006°11'9 9.3
2016-May-25 02:34N 53°40' E 005°57'9 9.3
2016-May-25 01:33N 53°37' E 005°42'9 9.4
2016-May-25 00:33N 53°35' E 005°27'9 9.4
2016-May-24 23:33N 53°32' E 005°12'9 9.3
2016-May-24 22:33N 53°28' E 004°57'26 8.6
2016-May-24 19:30N 53°08' E 004°30'9 9.4
2016-May-24 18:33N 52°60' E 004°22'20 9.8
2016-May-24 16:28N 52°43' E 004°03'9 9.6
2016-May-24 15:33N 52°37' E 003°53'9 9.1
2016-May-24 14:33N 52°30' E 003°43'9 8.6
2016-May-24 13:28N 52°22' E 003°34'8 8.2
2016-May-24 12:32N 52°15' E 003°30'36 7.3
2016-May-24 07:33N 51°40' E 003°20'1110.8
2016-May-24 06:33N 51°30' E 003°28'9 9.2
2016-May-24 05:33N 51°27' E 003°42'1 0.5
2016-May-24 04:32N 51°27' E 003°43'0 0.0
2016-May-24 03:32N 51°27' E 003°43'0 0.0
2016-May-24 02:32N 51°27' E 003°43'0 0.0
2016-May-24 01:32N 51°27' E 003°43'0 0.0
2016-May-24 00:32N 51°27' E 003°43'0 0.0
2016-May-23 23:32N 51°27' E 003°43'0 0.0
2016-May-23 22:32N 51°27' E 003°43'0 0.0
2016-May-23 21:32N 51°27' E 003°43'0 0.0
2016-May-23 20:32N 51°27' E 003°43'0 0.0
2016-May-23 19:32N 51°27' E 003°43'0 0.0
2016-May-23 18:32N 51°27' E 003°43'0 0.0
2016-May-23 17:32N 51°27' E 003°43'0 0.0
2016-May-23 16:31N 51°27' E 003°43'0 0.0
2016-May-23 15:32N 51°27' E 003°43'0 0.0
2016-May-23 14:31N 51°27' E 003°43'0 0.0
2016-May-23 13:28N 51°27' E 003°43'0 0.0
2016-May-23 12:31N 51°27' E 003°43'0 0.0
2016-May-23 11:31N 51°27' E 003°43'0 0.0
2016-May-23 10:31N 51°27' E 003°43'0 0.0
2016-May-23 09:31N 51°27' E 003°43'0 0.0
2016-May-23 08:31N 51°27' E 003°43'0 0.0
2016-May-23 07:31N 51°27' E 003°43'0 0.0
2016-May-23 06:31N 51°27' E 003°43'0 0.0
2016-May-23 05:31N 51°27' E 003°43'0 0.0
2016-May-23 04:31N 51°27' E 003°43'0 0.0
2016-May-23 03:31N 51°27' E 003°43'0 0.0
2016-May-23 02:31N 51°27' E 003°43'0 0.0
2016-May-23 01:31N 51°27' E 003°43'0 0.0
2016-May-23 00:31N 51°27' E 003°43'0 0.0
2016-May-22 23:31N 51°27' E 003°43'0 0.0
2016-May-22 22:31N 51°27' E 003°43'0 0.0
2016-May-22 21:31N 51°27' E 003°43'0 0.0
2016-May-22 20:31N 51°27' E 003°43'0 0.0
2016-May-22 19:31N 51°27' E 003°43'0 0.0
2016-May-22 18:31N 51°27' E 003°43'0 0.0
2016-May-22 17:31N 51°27' E 003°43'0 0.0
2016-May-22 16:28N 51°27' E 003°43'0 0.0
2016-May-22 15:31N 51°27' E 003°43'0 0.0
2016-May-22 14:31N 51°27' E 003°43'0 0.0
2016-May-22 13:31N 51°27' E 003°43'0 0.0
2016-May-22 12:31N 51°27' E 003°43'0 0.0
2016-May-22 11:31N 51°27' E 003°43'0 0.0
2016-May-22 10:31N 51°27' E 003°43'0 0.0
2016-May-22 09:31N 51°27' E 003°43'0 0.0
2016-May-22 08:31N 51°27' E 003°43'0 0.0
2016-May-22 07:31N 51°27' E 003°43'0 0.0
2016-May-22 06:31N 51°27' E 003°43'0 0.0
2016-May-22 05:31N 51°27' E 003°43'0 0.0
2016-May-22 04:31N 51°27' E 003°43'0 0.0
2016-May-22 03:31N 51°27' E 003°43'0 0.0
2016-May-22 02:31N 51°27' E 003°43'0 0.0
2016-May-22 01:31N 51°27' E 003°43'0 0.0
2016-May-22 00:34N 51°27' E 003°43'0 0.0
2016-May-21 23:34N 51°27' E 003°43'0 0.0
2016-May-21 22:30N 51°27' E 003°43'0 0.0
2016-May-21 21:33N 51°27' E 003°43'0 0.0
2016-May-21 20:30N 51°27' E 003°43'0 0.0
2016-May-21 19:33N 51°27' E 003°43'2 2.0
2016-May-21 18:34N 51°27' E 003°40'8 7.9
2016-May-21 17:34N 51°25' E 003°27'8 8.1
2016-May-21 16:33N 51°24' E 003°14'9 9.5
2016-May-21 15:34N 51°23' E 002°59'1110.8
2016-May-21 14:34N 51°22' E 002°42'9 8.8
2016-May-21 13:31N 51°21' E 002°28'1212.1
2016-May-21 12:33N 51°16' E 002°11'1312.7
2016-May-21 11:34N 51°10' E 001°53'1313.1
2016-May-21 10:34N 51°01' E 001°38'1212.1
2016-May-21 09:32N 50°51' E 001°26'53 9.7
2016-May-21 04:04N 50°21' E 000°17'5 9.1
2016-May-21 03:33N 50°20' E 000°10'9 9.0
2016-May-21 02:34N 50°18' W 000°04'9 8.9
2016-May-21 01:33N 50°16' W 000°18'11411.4
2016-May-20 15:33N 49°43' W 003°08'  

Dump ship's entire track history